sensor_id;sensor_type;location;lat;lon;timestamp;temperature;humidity
44647;DHT22;56315;-33.902;151.160;2022-08-21T00:01:29;26.40;64.90
44647;DHT22;56315;-33.902;151.160;2022-08-21T00:03:57;26.10;63.30
44647;DHT22;56315;-33.902;151.160;2022-08-21T00:06:25;25.80;64.90
44647;DHT22;56315;-33.902;151.160;2022-08-21T00:08:52;25.90;64.40
44647;DHT22;56315;-33.902;151.160;2022-08-21T00:11:20;25.40;65.80
44647;DHT22;56315;-33.902;151.160;2022-08-21T00:13:47;25.20;64.20
44647;DHT22;56315;-33.902;151.160;2022-08-21T00:16:15;25.20;65.80
44647;DHT22;56315;-33.902;151.160;2022-08-21T00:18:42;25.60;64.80
44647;DHT22;56315;-33.902;151.160;2022-08-21T00:21:12;25.60;64.40
44647;DHT22;56315;-33.902;151.160;2022-08-21T00:23:40;25.40;63.40
44647;DHT22;56315;-33.902;151.160;2022-08-21T00:26:08;25.50;64.90
44647;DHT22;56315;-33.902;151.160;2022-08-21T00:28:36;26.10;63.00
44647;DHT22;56315;-33.902;151.160;2022-08-21T00:31:03;26.90;62.40
44647;DHT22;56315;-33.902;151.160;2022-08-21T00:33:31;27.60;62.20
44647;DHT22;56315;-33.902;151.160;2022-08-21T00:35:58;27.80;60.30
44647;DHT22;56315;-33.902;151.160;2022-08-21T00:38:26;27.70;60.60
44647;DHT22;56315;-33.902;151.160;2022-08-21T00:40:57;28.00;58.90
44647;DHT22;56315;-33.902;151.160;2022-08-21T00:43:30;27.90;59.60
44647;DHT22;56315;-33.902;151.160;2022-08-21T00:45:59;28.30;58.10
44647;DHT22;56315;-33.902;151.160;2022-08-21T00:48:27;28.60;59.00
44647;DHT22;56315;-33.902;151.160;2022-08-21T00:51:11;28.20;58.30
44647;DHT22;56315;-33.902;151.160;2022-08-21T00:53:43;28.70;56.30
44647;DHT22;56315;-33.902;151.160;2022-08-21T00:56:13;29.30;57.30
44647;DHT22;56315;-33.902;151.160;2022-08-21T00:58:41;30.20;55.00
44647;DHT22;56315;-33.902;151.160;2022-08-21T01:01:09;30.30;54.80
44647;DHT22;56315;-33.902;151.160;2022-08-21T01:03:37;30.20;54.30
44647;DHT22;56315;-33.902;151.160;2022-08-21T01:06:06;29.50;54.50
44647;DHT22;56315;-33.902;151.160;2022-08-21T01:08:34;28.90;56.40
44647;DHT22;56315;-33.902;151.160;2022-08-21T01:11:03;29.00;55.00
44647;DHT22;56315;-33.902;151.160;2022-08-21T01:13:34;29.30;54.00
44647;DHT22;56315;-33.902;151.160;2022-08-21T01:16:04;29.40;52.70
44647;DHT22;56315;-33.902;151.160;2022-08-21T01:18:33;29.80;53.80
44647;DHT22;56315;-33.902;151.160;2022-08-21T01:21:15;30.20;53.00
44647;DHT22;56315;-33.902;151.160;2022-08-21T01:23:45;30.00;52.90
44647;DHT22;56315;-33.902;151.160;2022-08-21T01:26:15;30.20;52.50
44647;DHT22;56315;-33.902;151.160;2022-08-21T01:31:25;30.00;53.10
44647;DHT22;56315;-33.902;151.160;2022-08-21T01:33:55;30.20;52.00
44647;DHT22;56315;-33.902;151.160;2022-08-21T01:36:23;30.00;52.20
44647;DHT22;56315;-33.902;151.160;2022-08-21T01:38:51;29.90;54.60
44647;DHT22;56315;-33.902;151.160;2022-08-21T01:41:19;29.80;51.70
44647;DHT22;56315;-33.902;151.160;2022-08-21T01:43:46;29.10;51.90
44647;DHT22;56315;-33.902;151.160;2022-08-21T01:46:15;28.60;53.50
44647;DHT22;56315;-33.902;151.160;2022-08-21T01:48:43;28.50;54.10
44647;DHT22;56315;-33.902;151.160;2022-08-21T01:51:11;28.20;54.70
44647;DHT22;56315;-33.902;151.160;2022-08-21T01:53:39;28.40;54.50
44647;DHT22;56315;-33.902;151.160;2022-08-21T01:56:09;28.80;52.90
44647;DHT22;56315;-33.902;151.160;2022-08-21T01:58:37;29.30;52.10
44647;DHT22;56315;-33.902;151.160;2022-08-21T02:01:05;29.40;52.00
44647;DHT22;56315;-33.902;151.160;2022-08-21T02:03:32;29.20;52.80
44647;DHT22;56315;-33.902;151.160;2022-08-21T02:06:00;29.20;51.80
44647;DHT22;56315;-33.902;151.160;2022-08-21T02:08:28;28.70;51.70
44647;DHT22;56315;-33.902;151.160;2022-08-21T02:10:56;28.70;51.80
44647;DHT22;56315;-33.902;151.160;2022-08-21T02:13:23;28.60;51.70
44647;DHT22;56315;-33.902;151.160;2022-08-21T02:15:51;28.50;51.90
44647;DHT22;56315;-33.902;151.160;2022-08-21T02:18:18;28.50;51.50
44647;DHT22;56315;-33.902;151.160;2022-08-21T02:20:48;28.40;51.50
44647;DHT22;56315;-33.902;151.160;2022-08-21T02:23:16;28.80;52.70
44647;DHT22;56315;-33.902;151.160;2022-08-21T02:25:44;28.70;51.80
44647;DHT22;56315;-33.902;151.160;2022-08-21T02:28:14;27.60;51.80
44647;DHT22;56315;-33.902;151.160;2022-08-21T02:30:45;26.80;53.90
44647;DHT22;56315;-33.902;151.160;2022-08-21T02:33:13;26.20;54.00
44647;DHT22;56315;-33.902;151.160;2022-08-21T02:35:43;26.30;54.10
44647;DHT22;56315;-33.902;151.160;2022-08-21T02:38:15;26.40;53.60
44647;DHT22;56315;-33.902;151.160;2022-08-21T02:40:46;26.60;53.20
44647;DHT22;56315;-33.902;151.160;2022-08-21T02:43:14;26.70;53.70
44647;DHT22;56315;-33.902;151.160;2022-08-21T02:45:44;27.00;53.30
44647;DHT22;56315;-33.902;151.160;2022-08-21T02:48:16;27.80;53.30
44647;DHT22;56315;-33.902;151.160;2022-08-21T02:50:51;28.40;52.00
44647;DHT22;56315;-33.902;151.160;2022-08-21T02:53:19;28.40;52.30
44647;DHT22;56315;-33.902;151.160;2022-08-21T02:55:49;27.80;51.50
44647;DHT22;56315;-33.902;151.160;2022-08-21T02:58:20;26.70;52.80
44647;DHT22;56315;-33.902;151.160;2022-08-21T03:00:48;26.30;54.00
44647;DHT22;56315;-33.902;151.160;2022-08-21T03:03:16;26.50;53.90
44647;DHT22;56315;-33.902;151.160;2022-08-21T03:05:44;26.20;53.70
44647;DHT22;56315;-33.902;151.160;2022-08-21T03:08:13;25.90;54.50
44647;DHT22;56315;-33.902;151.160;2022-08-21T03:10:46;26.40;54.80
44647;DHT22;56315;-33.902;151.160;2022-08-21T03:13:15;25.80;54.10
44647;DHT22;56315;-33.902;151.160;2022-08-21T03:15:43;25.60;53.70
44647;DHT22;56315;-33.902;151.160;2022-08-21T03:18:11;25.50;53.90
44647;DHT22;56315;-33.902;151.160;2022-08-21T03:20:41;25.50;54.30
44647;DHT22;56315;-33.902;151.160;2022-08-21T03:23:09;25.60;55.30
44647;DHT22;56315;-33.902;151.160;2022-08-21T03:25:37;25.20;56.20
44647;DHT22;56315;-33.902;151.160;2022-08-21T03:28:07;24.70;55.60
44647;DHT22;56315;-33.902;151.160;2022-08-21T03:30:36;24.10;56.00
44647;DHT22;56315;-33.902;151.160;2022-08-21T03:33:04;23.50;57.80
44647;DHT22;56315;-33.902;151.160;2022-08-21T03:35:31;23.10;55.80
44647;DHT22;56315;-33.902;151.160;2022-08-21T03:37:58;22.60;57.00
44647;DHT22;56315;-33.902;151.160;2022-08-21T03:40:26;22.10;59.60
44647;DHT22;56315;-33.902;151.160;2022-08-21T03:42:53;22.10;59.80
44647;DHT22;56315;-33.902;151.160;2022-08-21T03:45:21;22.00;58.50
44647;DHT22;56315;-33.902;151.160;2022-08-21T03:47:58;21.70;60.10
44647;DHT22;56315;-33.902;151.160;2022-08-21T03:50:31;21.30;60.90
44647;DHT22;56315;-33.902;151.160;2022-08-21T03:52:59;21.10;61.90
44647;DHT22;56315;-33.902;151.160;2022-08-21T03:55:27;21.10;61.50
44647;DHT22;56315;-33.902;151.160;2022-08-21T03:57:54;21.00;61.50
44647;DHT22;56315;-33.902;151.160;2022-08-21T04:00:23;21.00;60.80
44647;DHT22;56315;-33.902;151.160;2022-08-21T04:02:50;20.80;60.30
44647;DHT22;56315;-33.902;151.160;2022-08-21T04:05:19;20.90;61.60
44647;DHT22;56315;-33.902;151.160;2022-08-21T04:08:02;21.00;61.90
44647;DHT22;56315;-33.902;151.160;2022-08-21T04:10:34;21.10;60.80
44647;DHT22;56315;-33.902;151.160;2022-08-21T04:13:21;20.90;59.00
44647;DHT22;56315;-33.902;151.160;2022-08-21T04:22:46;20.50;60.20
44647;DHT22;56315;-33.902;151.160;2022-08-21T04:25:28;20.50;60.80
44647;DHT22;56315;-33.902;151.160;2022-08-21T04:27:56;20.60;60.50
44647;DHT22;56315;-33.902;151.160;2022-08-21T04:30:25;20.50;60.70
44647;DHT22;56315;-33.902;151.160;2022-08-21T04:32:52;20.40;59.90
44647;DHT22;56315;-33.902;151.160;2022-08-21T04:35:21;20.10;61.20
44647;DHT22;56315;-33.902;151.160;2022-08-21T04:37:55;20.00;62.80
44647;DHT22;56315;-33.902;151.160;2022-08-21T04:40:27;20.00;59.70
44647;DHT22;56315;-33.902;151.160;2022-08-21T04:42:57;19.90;59.50
44647;DHT22;56315;-33.902;151.160;2022-08-21T04:45:47;19.80;60.80
44647;DHT22;56315;-33.902;151.160;2022-08-21T04:48:21;19.80;60.10
44647;DHT22;56315;-33.902;151.160;2022-08-21T04:50:57;19.90;60.80
44647;DHT22;56315;-33.902;151.160;2022-08-21T04:56:08;19.90;60.40
44647;DHT22;56315;-33.902;151.160;2022-08-21T04:58:40;19.90;62.20
44647;DHT22;56315;-33.902;151.160;2022-08-21T05:04:25;19.80;61.30
44647;DHT22;56315;-33.902;151.160;2022-08-21T05:06:54;19.70;60.20
44647;DHT22;56315;-33.902;151.160;2022-08-21T05:09:23;19.70;65.10
44647;DHT22;56315;-33.902;151.160;2022-08-21T05:11:54;19.50;69.70
44647;DHT22;56315;-33.902;151.160;2022-08-21T05:14:22;19.30;72.20
44647;DHT22;56315;-33.902;151.160;2022-08-21T05:16:49;19.20;73.30
44647;DHT22;56315;-33.902;151.160;2022-08-21T05:19:16;19.00;73.70
44647;DHT22;56315;-33.902;151.160;2022-08-21T05:21:45;19.00;74.40
44647;DHT22;56315;-33.902;151.160;2022-08-21T05:24:14;18.90;75.00
44647;DHT22;56315;-33.902;151.160;2022-08-21T05:26:42;18.80;76.20
44647;DHT22;56315;-33.902;151.160;2022-08-21T05:29:09;18.60;76.60
44647;DHT22;56315;-33.902;151.160;2022-08-21T05:31:37;18.40;77.80
44647;DHT22;56315;-33.902;151.160;2022-08-21T05:34:05;18.20;79.00
44647;DHT22;56315;-33.902;151.160;2022-08-21T05:36:32;18.20;79.80
44647;DHT22;56315;-33.902;151.160;2022-08-21T05:39:00;18.00;79.70
44647;DHT22;56315;-33.902;151.160;2022-08-21T05:41:28;18.00;80.90
44647;DHT22;56315;-33.902;151.160;2022-08-21T05:43:55;18.00;80.80
44647;DHT22;56315;-33.902;151.160;2022-08-21T05:46:22;17.90;80.30
44647;DHT22;56315;-33.902;151.160;2022-08-21T05:48:50;17.90;81.30
44647;DHT22;56315;-33.902;151.160;2022-08-21T05:51:17;17.80;82.20
44647;DHT22;56315;-33.902;151.160;2022-08-21T05:53:45;17.70;82.90
44647;DHT22;56315;-33.902;151.160;2022-08-21T05:56:13;17.70;83.60
44647;DHT22;56315;-33.902;151.160;2022-08-21T05:58:41;17.70;84.80
44647;DHT22;56315;-33.902;151.160;2022-08-21T06:01:09;17.60;84.80
44647;DHT22;56315;-33.902;151.160;2022-08-21T06:03:39;17.60;85.30
44647;DHT22;56315;-33.902;151.160;2022-08-21T06:06:07;17.60;85.60
44647;DHT22;56315;-33.902;151.160;2022-08-21T06:08:35;17.60;85.80
44647;DHT22;56315;-33.902;151.160;2022-08-21T06:11:03;17.50;86.30
44647;DHT22;56315;-33.902;151.160;2022-08-21T06:13:31;17.50;87.50
44647;DHT22;56315;-33.902;151.160;2022-08-21T06:16:10;17.30;88.10
44647;DHT22;56315;-33.902;151.160;2022-08-21T06:18:39;17.30;89.70
44647;DHT22;56315;-33.902;151.160;2022-08-21T06:21:07;17.20;90.00
44647;DHT22;56315;-33.902;151.160;2022-08-21T06:23:35;17.10;90.80
44647;DHT22;56315;-33.902;151.160;2022-08-21T06:26:03;17.10;90.80
44647;DHT22;56315;-33.902;151.160;2022-08-21T06:28:32;17.00;90.70
44647;DHT22;56315;-33.902;151.160;2022-08-21T06:30:59;16.90;91.00
44647;DHT22;56315;-33.902;151.160;2022-08-21T06:33:27;16.90;91.20
44647;DHT22;56315;-33.902;151.160;2022-08-21T06:35:54;16.80;91.20
44647;DHT22;56315;-33.902;151.160;2022-08-21T06:38:21;16.80;91.80
44647;DHT22;56315;-33.902;151.160;2022-08-21T06:40:49;16.70;92.20
44647;DHT22;56315;-33.902;151.160;2022-08-21T06:43:17;16.60;92.60
44647;DHT22;56315;-33.902;151.160;2022-08-21T06:45:44;16.60;93.30
44647;DHT22;56315;-33.902;151.160;2022-08-21T06:48:12;16.50;93.90
44647;DHT22;56315;-33.902;151.160;2022-08-21T06:50:40;16.50;94.40
44647;DHT22;56315;-33.902;151.160;2022-08-21T06:53:10;16.40;94.20
44647;DHT22;56315;-33.902;151.160;2022-08-21T06:55:39;16.30;94.30
44647;DHT22;56315;-33.902;151.160;2022-08-21T06:58:07;16.30;94.80
44647;DHT22;56315;-33.902;151.160;2022-08-21T07:00:35;16.20;94.90
44647;DHT22;56315;-33.902;151.160;2022-08-21T07:03:03;16.10;95.30
44647;DHT22;56315;-33.902;151.160;2022-08-21T07:05:30;16.10;95.60
44647;DHT22;56315;-33.902;151.160;2022-08-21T07:07:58;16.10;95.90
44647;DHT22;56315;-33.902;151.160;2022-08-21T07:10:26;16.00;96.20
44647;DHT22;56315;-33.902;151.160;2022-08-21T07:12:54;16.00;96.50
44647;DHT22;56315;-33.902;151.160;2022-08-21T07:15:21;15.90;96.90
44647;DHT22;56315;-33.902;151.160;2022-08-21T07:17:49;15.90;97.30
44647;DHT22;56315;-33.902;151.160;2022-08-21T07:20:16;15.90;97.70
44647;DHT22;56315;-33.902;151.160;2022-08-21T07:22:44;15.80;98.20
44647;DHT22;56315;-33.902;151.160;2022-08-21T07:25:11;15.80;98.40
44647;DHT22;56315;-33.902;151.160;2022-08-21T07:27:39;15.70;98.80
44647;DHT22;56315;-33.902;151.160;2022-08-21T07:30:07;15.70;98.90
44647;DHT22;56315;-33.902;151.160;2022-08-21T07:32:34;15.60;99.10
44647;DHT22;56315;-33.902;151.160;2022-08-21T07:35:02;15.60;99.20
44647;DHT22;56315;-33.902;151.160;2022-08-21T07:37:29;15.60;99.10
44647;DHT22;56315;-33.902;151.160;2022-08-21T07:39:57;15.50;99.30
44647;DHT22;56315;-33.902;151.160;2022-08-21T07:42:24;15.40;99.40
44647;DHT22;56315;-33.902;151.160;2022-08-21T07:44:51;15.50;99.50
44647;DHT22;56315;-33.902;151.160;2022-08-21T07:47:19;15.50;99.60
44647;DHT22;56315;-33.902;151.160;2022-08-21T07:49:46;15.40;99.90
44647;DHT22;56315;-33.902;151.160;2022-08-21T07:52:13;15.40;99.90
44647;DHT22;56315;-33.902;151.160;2022-08-21T07:54:41;15.30;99.90
44647;DHT22;56315;-33.902;151.160;2022-08-21T07:57:08;15.30;99.90
44647;DHT22;56315;-33.902;151.160;2022-08-21T07:59:36;15.30;99.90
44647;DHT22;56315;-33.902;151.160;2022-08-21T08:02:03;15.30;99.90
44647;DHT22;56315;-33.902;151.160;2022-08-21T08:04:31;15.30;99.90
44647;DHT22;56315;-33.902;151.160;2022-08-21T08:06:58;15.20;99.90
44647;DHT22;56315;-33.902;151.160;2022-08-21T08:09:26;15.20;99.90
44647;DHT22;56315;-33.902;151.160;2022-08-21T08:11:53;15.20;99.90
44647;DHT22;56315;-33.902;151.160;2022-08-21T08:14:21;15.10;99.90
44647;DHT22;56315;-33.902;151.160;2022-08-21T08:16:49;15.10;99.90
44647;DHT22;56315;-33.902;151.160;2022-08-21T08:19:16;15.10;99.90
44647;DHT22;56315;-33.902;151.160;2022-08-21T08:21:44;15.10;99.90
44647;DHT22;56315;-33.902;151.160;2022-08-21T08:24:11;15.00;99.90
44647;DHT22;56315;-33.902;151.160;2022-08-21T08:26:38;15.00;99.90
44647;DHT22;56315;-33.902;151.160;2022-08-21T08:29:06;14.90;99.90
44647;DHT22;56315;-33.902;151.160;2022-08-21T08:31:33;14.90;99.90
44647;DHT22;56315;-33.902;151.160;2022-08-21T08:34:00;14.90;99.90
44647;DHT22;56315;-33.902;151.160;2022-08-21T08:36:36;14.90;99.90
44647;DHT22;56315;-33.902;151.160;2022-08-21T08:39:05;14.90;99.90
44647;DHT22;56315;-33.902;151.160;2022-08-21T08:41:33;14.90;99.90
44647;DHT22;56315;-33.902;151.160;2022-08-21T08:44:03;14.90;99.90
44647;DHT22;56315;-33.902;151.160;2022-08-21T08:46:41;14.90;99.90
44647;DHT22;56315;-33.902;151.160;2022-08-21T08:49:20;14.80;99.90
44647;DHT22;56315;-33.902;151.160;2022-08-21T08:54:42;14.70;99.90
44647;DHT22;56315;-33.902;151.160;2022-08-21T08:57:17;14.60;99.90
44647;DHT22;56315;-33.902;151.160;2022-08-21T09:00:06;14.60;99.90
44647;DHT22;56315;-33.902;151.160;2022-08-21T09:02:40;14.40;99.90
44647;DHT22;56315;-33.902;151.160;2022-08-21T09:05:23;14.40;99.90
44647;DHT22;56315;-33.902;151.160;2022-08-21T09:22:26;14.20;99.90
44647;DHT22;56315;-33.902;151.160;2022-08-21T09:27:36;14.20;99.90
44647;DHT22;56315;-33.902;151.160;2022-08-21T09:30:05;14.20;99.90
44647;DHT22;56315;-33.902;151.160;2022-08-21T09:32:35;14.20;99.90
44647;DHT22;56315;-33.902;151.160;2022-08-21T09:35:17;14.20;99.90
44647;DHT22;56315;-33.902;151.160;2022-08-21T09:37:56;14.20;99.90
44647;DHT22;56315;-33.902;151.160;2022-08-21T09:43:01;14.20;99.90
44647;DHT22;56315;-33.902;151.160;2022-08-21T09:45:31;14.20;99.90
44647;DHT22;56315;-33.902;151.160;2022-08-21T09:48:19;14.20;99.90
44647;DHT22;56315;-33.902;151.160;2022-08-21T09:50:48;14.20;99.90
44647;DHT22;56315;-33.902;151.160;2022-08-21T09:53:28;14.30;99.90
44647;DHT22;56315;-33.902;151.160;2022-08-21T09:55:59;14.20;99.90
44647;DHT22;56315;-33.902;151.160;2022-08-21T09:58:48;14.20;99.90
44647;DHT22;56315;-33.902;151.160;2022-08-21T10:01:22;14.20;99.90
44647;DHT22;56315;-33.902;151.160;2022-08-21T10:04:07;14.20;99.90
44647;DHT22;56315;-33.902;151.160;2022-08-21T10:06:35;14.20;99.90
44647;DHT22;56315;-33.902;151.160;2022-08-21T10:11:35;14.20;99.90
44647;DHT22;56315;-33.902;151.160;2022-08-21T10:14:26;14.20;99.90
44647;DHT22;56315;-33.902;151.160;2022-08-21T10:25:46;14.20;99.90
44647;DHT22;56315;-33.902;151.160;2022-08-21T10:28:55;14.20;99.90
44647;DHT22;56315;-33.902;151.160;2022-08-21T10:34:22;14.10;99.90
44647;DHT22;56315;-33.902;151.160;2022-08-21T10:49:08;14.10;99.90
44647;DHT22;56315;-33.902;151.160;2022-08-21T10:54:37;14.00;99.90
44647;DHT22;56315;-33.902;151.160;2022-08-21T11:00:53;14.00;99.90
44647;DHT22;56315;-33.902;151.160;2022-08-21T11:05:59;13.90;99.90
44647;DHT22;56315;-33.902;151.160;2022-08-21T11:08:43;13.90;99.90
44647;DHT22;56315;-33.902;151.160;2022-08-21T11:11:16;13.90;99.90
44647;DHT22;56315;-33.902;151.160;2022-08-21T11:13:55;13.90;99.90
44647;DHT22;56315;-33.902;151.160;2022-08-21T11:16:37;13.90;99.90
44647;DHT22;56315;-33.902;151.160;2022-08-21T11:19:39;13.90;99.90
44647;DHT22;56315;-33.902;151.160;2022-08-21T11:25:49;14.00;99.90
44647;DHT22;56315;-33.902;151.160;2022-08-21T11:30:21;13.80;99.90
44647;DHT22;56315;-33.902;151.160;2022-08-21T11:38:35;13.80;99.90
44647;DHT22;56315;-33.902;151.160;2022-08-21T11:47:03;13.80;99.90
44647;DHT22;56315;-33.902;151.160;2022-08-21T11:50:12;13.70;99.90
44647;DHT22;56315;-33.902;151.160;2022-08-21T11:52:53;13.60;99.90
44647;DHT22;56315;-33.902;151.160;2022-08-21T11:55:31;13.60;99.90
44647;DHT22;56315;-33.902;151.160;2022-08-21T11:58:10;13.50;99.90
44647;DHT22;56315;-33.902;151.160;2022-08-21T12:00:47;13.50;99.90
44647;DHT22;56315;-33.902;151.160;2022-08-21T12:05:58;13.50;99.90
44647;DHT22;56315;-33.902;151.160;2022-08-21T12:08:38;13.50;99.90
44647;DHT22;56315;-33.902;151.160;2022-08-21T12:16:37;13.30;99.90
44647;DHT22;56315;-33.902;151.160;2022-08-21T12:19:10;13.30;99.90
44647;DHT22;56315;-33.902;151.160;2022-08-21T12:22:09;13.30;99.90
44647;DHT22;56315;-33.902;151.160;2022-08-21T12:24:45;13.30;99.90
44647;DHT22;56315;-33.902;151.160;2022-08-21T12:27:26;13.20;99.90
44647;DHT22;56315;-33.902;151.160;2022-08-21T12:32:44;13.00;99.90
44647;DHT22;56315;-33.902;151.160;2022-08-21T12:35:21;13.00;99.90
44647;DHT22;56315;-33.902;151.160;2022-08-21T12:38:12;13.00;99.90
44647;DHT22;56315;-33.902;151.160;2022-08-21T12:41:14;13.10;99.90
44647;DHT22;56315;-33.902;151.160;2022-08-21T12:43:57;13.00;99.90
44647;DHT22;56315;-33.902;151.160;2022-08-21T12:46:58;12.80;99.90
44647;DHT22;56315;-33.902;151.160;2022-08-21T12:49:34;12.60;99.90
44647;DHT22;56315;-33.902;151.160;2022-08-21T12:54:55;12.40;99.90
44647;DHT22;56315;-33.902;151.160;2022-08-21T12:57:25;12.30;99.90
44647;DHT22;56315;-33.902;151.160;2022-08-21T13:00:05;12.30;99.90
44647;DHT22;56315;-33.902;151.160;2022-08-21T13:02:39;12.30;99.90
44647;DHT22;56315;-33.902;151.160;2022-08-21T13:05:14;12.20;99.90
44647;DHT22;56315;-33.902;151.160;2022-08-21T13:07:47;12.20;99.90
44647;DHT22;56315;-33.902;151.160;2022-08-21T13:12:46;12.00;99.90
44647;DHT22;56315;-33.902;151.160;2022-08-21T13:15:21;12.00;99.90
44647;DHT22;56315;-33.902;151.160;2022-08-21T13:17:51;12.00;99.90
44647;DHT22;56315;-33.902;151.160;2022-08-21T13:20:25;11.80;99.90
44647;DHT22;56315;-33.902;151.160;2022-08-21T13:22:52;11.70;99.90
44647;DHT22;56315;-33.902;151.160;2022-08-21T13:25:24;11.50;99.90
44647;DHT22;56315;-33.902;151.160;2022-08-21T13:28:08;11.30;99.90
44647;DHT22;56315;-33.902;151.160;2022-08-21T13:30:44;11.20;99.90
44647;DHT22;56315;-33.902;151.160;2022-08-21T13:33:14;11.10;99.90
44647;DHT22;56315;-33.902;151.160;2022-08-21T13:38:23;10.90;99.90
44647;DHT22;56315;-33.902;151.160;2022-08-21T13:41:03;10.80;99.90
44647;DHT22;56315;-33.902;151.160;2022-08-21T13:43:34;10.70;99.90
44647;DHT22;56315;-33.902;151.160;2022-08-21T13:46:07;10.70;99.90
44647;DHT22;56315;-33.902;151.160;2022-08-21T13:48:37;10.70;99.90
44647;DHT22;56315;-33.902;151.160;2022-08-21T13:51:05;10.70;99.90
44647;DHT22;56315;-33.902;151.160;2022-08-21T13:53:45;10.60;99.90
44647;DHT22;56315;-33.902;151.160;2022-08-21T13:56:30;10.50;99.90
44647;DHT22;56315;-33.902;151.160;2022-08-21T13:59:00;10.40;99.90
44647;DHT22;56315;-33.902;151.160;2022-08-21T14:01:34;10.40;99.90
44647;DHT22;56315;-33.902;151.160;2022-08-21T14:04:18;10.30;99.90
44647;DHT22;56315;-33.902;151.160;2022-08-21T14:06:46;10.30;99.90
44647;DHT22;56315;-33.902;151.160;2022-08-21T14:09:29;10.30;99.90
44647;DHT22;56315;-33.902;151.160;2022-08-21T14:11:59;10.30;99.90
44647;DHT22;56315;-33.902;151.160;2022-08-21T14:14:33;10.40;99.90
44647;DHT22;56315;-33.902;151.160;2022-08-21T14:17:07;10.40;99.90
44647;DHT22;56315;-33.902;151.160;2022-08-21T14:19:45;10.40;99.90
44647;DHT22;56315;-33.902;151.160;2022-08-21T14:22:37;10.40;99.90
44647;DHT22;56315;-33.902;151.160;2022-08-21T14:30:29;10.40;99.90
44647;DHT22;56315;-33.902;151.160;2022-08-21T14:32:58;10.30;99.90
44647;DHT22;56315;-33.902;151.160;2022-08-21T14:35:25;10.20;99.90
44647;DHT22;56315;-33.902;151.160;2022-08-21T14:37:53;10.20;99.90
44647;DHT22;56315;-33.902;151.160;2022-08-21T14:40:23;10.10;99.90
44647;DHT22;56315;-33.902;151.160;2022-08-21T14:42:51;10.10;99.90
44647;DHT22;56315;-33.902;151.160;2022-08-21T14:45:28;10.00;99.90
44647;DHT22;56315;-33.902;151.160;2022-08-21T14:47:57;10.00;99.90
44647;DHT22;56315;-33.902;151.160;2022-08-21T14:50:26;9.90;99.90
44647;DHT22;56315;-33.902;151.160;2022-08-21T14:52:53;9.90;99.90
44647;DHT22;56315;-33.902;151.160;2022-08-21T14:55:20;9.90;99.90
44647;DHT22;56315;-33.902;151.160;2022-08-21T14:57:49;9.80;99.90
44647;DHT22;56315;-33.902;151.160;2022-08-21T15:00:21;9.70;99.90
44647;DHT22;56315;-33.902;151.160;2022-08-21T15:02:52;9.70;99.90
44647;DHT22;56315;-33.902;151.160;2022-08-21T15:05:19;9.70;99.90
44647;DHT22;56315;-33.902;151.160;2022-08-21T15:07:47;9.60;99.90
44647;DHT22;56315;-33.902;151.160;2022-08-21T15:10:14;9.50;99.90
44647;DHT22;56315;-33.902;151.160;2022-08-21T15:12:42;9.40;99.90
44647;DHT22;56315;-33.902;151.160;2022-08-21T15:15:09;9.40;99.90
44647;DHT22;56315;-33.902;151.160;2022-08-21T15:17:37;9.40;99.90
44647;DHT22;56315;-33.902;151.160;2022-08-21T15:20:04;9.30;99.90
44647;DHT22;56315;-33.902;151.160;2022-08-21T15:22:33;9.30;99.90
44647;DHT22;56315;-33.902;151.160;2022-08-21T15:25:00;9.20;99.90
44647;DHT22;56315;-33.902;151.160;2022-08-21T15:27:28;9.20;99.90
44647;DHT22;56315;-33.902;151.160;2022-08-21T15:29:56;9.20;99.90
44647;DHT22;56315;-33.902;151.160;2022-08-21T15:32:27;9.10;99.90
44647;DHT22;56315;-33.902;151.160;2022-08-21T15:34:56;9.10;99.90
44647;DHT22;56315;-33.902;151.160;2022-08-21T15:37:25;9.10;99.90
44647;DHT22;56315;-33.902;151.160;2022-08-21T15:39:52;9.00;99.90
44647;DHT22;56315;-33.902;151.160;2022-08-21T15:42:21;9.00;99.90
44647;DHT22;56315;-33.902;151.160;2022-08-21T15:44:49;9.00;99.90
44647;DHT22;56315;-33.902;151.160;2022-08-21T15:47:22;9.00;99.90
44647;DHT22;56315;-33.902;151.160;2022-08-21T15:49:52;9.00;99.90
44647;DHT22;56315;-33.902;151.160;2022-08-21T15:52:20;9.10;99.90
44647;DHT22;56315;-33.902;151.160;2022-08-21T15:54:49;9.20;99.90
44647;DHT22;56315;-33.902;151.160;2022-08-21T15:57:20;9.30;99.90
44647;DHT22;56315;-33.902;151.160;2022-08-21T16:00:00;9.40;99.90
44647;DHT22;56315;-33.902;151.160;2022-08-21T16:02:39;9.50;99.90
44647;DHT22;56315;-33.902;151.160;2022-08-21T16:05:09;9.60;99.90
44647;DHT22;56315;-33.902;151.160;2022-08-21T16:07:39;9.80;99.90
44647;DHT22;56315;-33.902;151.160;2022-08-21T16:10:07;10.00;99.90
44647;DHT22;56315;-33.902;151.160;2022-08-21T16:12:58;10.00;99.90
44647;DHT22;56315;-33.902;151.160;2022-08-21T16:15:25;10.10;99.90
44647;DHT22;56315;-33.902;151.160;2022-08-21T16:17:53;10.20;99.90
44647;DHT22;56315;-33.902;151.160;2022-08-21T16:20:24;10.30;99.90
44647;DHT22;56315;-33.902;151.160;2022-08-21T16:22:53;10.40;99.90
44647;DHT22;56315;-33.902;151.160;2022-08-21T16:25:21;10.40;99.90
44647;DHT22;56315;-33.902;151.160;2022-08-21T16:27:55;10.40;99.90
44647;DHT22;56315;-33.902;151.160;2022-08-21T16:30:24;10.40;99.90
44647;DHT22;56315;-33.902;151.160;2022-08-21T16:32:52;10.40;99.90
44647;DHT22;56315;-33.902;151.160;2022-08-21T16:35:21;10.50;99.90
44647;DHT22;56315;-33.902;151.160;2022-08-21T16:37:50;10.50;99.90
44647;DHT22;56315;-33.902;151.160;2022-08-21T16:40:18;10.40;99.90
44647;DHT22;56315;-33.902;151.160;2022-08-21T16:42:45;10.40;99.90
44647;DHT22;56315;-33.902;151.160;2022-08-21T16:45:17;10.30;99.90
44647;DHT22;56315;-33.902;151.160;2022-08-21T16:47:45;10.20;99.90
44647;DHT22;56315;-33.902;151.160;2022-08-21T16:50:22;10.10;99.90
44647;DHT22;56315;-33.902;151.160;2022-08-21T16:52:51;10.00;99.90
44647;DHT22;56315;-33.902;151.160;2022-08-21T16:55:18;9.80;99.90
44647;DHT22;56315;-33.902;151.160;2022-08-21T16:57:46;9.70;99.90
44647;DHT22;56315;-33.902;151.160;2022-08-21T17:00:13;9.60;99.90
44647;DHT22;56315;-33.902;151.160;2022-08-21T17:02:47;9.50;99.90
44647;DHT22;56315;-33.902;151.160;2022-08-21T17:05:15;9.50;99.90
44647;DHT22;56315;-33.902;151.160;2022-08-21T17:07:43;9.50;99.90
44647;DHT22;56315;-33.902;151.160;2022-08-21T17:10:13;9.50;99.90